Terminal Aerodrome Forecast
Issued by NWS

Home | Current Version | Previous Version | Text Only | Print | Product List | Glossary On
Versions: 1 2 3 4 5 6 7 8 9 10 11 12 13
000
FTUS44 KOUN 251720
TAFLAW
TAF
KLAW 251720Z 2518/2618 34009KT P6SM BKN023
      TEMPO 2518/2520 SCT025
     FM252100 35007KT P6SM SKC
     FM260500 09005KT P6SM SKC=

USA.gov is the U.S. government's official web portal to all federal, state and local government web resources and services.